sensor_id;sensor_type;location;lat;lon;timestamp;P1;durP1;ratioP1;P2;durP2;ratioP2
72337;SDS011;60294;64.134;-21.862;2023-04-07T00:00:47;6.57;;;1.47;;
72337;SDS011;60294;64.134;-21.862;2023-04-07T00:03:13;3.17;;;0.43;;
72337;SDS011;60294;64.134;-21.862;2023-04-07T00:05:40;5.40;;;1.13;;
72337;SDS011;60294;64.134;-21.862;2023-04-07T00:08:06;4.33;;;0.80;;
72337;SDS011;60294;64.134;-21.862;2023-04-07T00:10:32;1.77;;;0.60;;
72337;SDS011;60294;64.134;-21.862;2023-04-07T00:12:58;10.43;;;1.00;;
72337;SDS011;60294;64.134;-21.862;2023-04-07T00:15:25;1.63;;;0.40;;
72337;SDS011;60294;64.134;-21.862;2023-04-07T00:17:51;4.97;;;0.87;;
72337;SDS011;60294;64.134;-21.862;2023-04-07T00:20:17;4.97;;;1.17;;
72337;SDS011;60294;64.134;-21.862;2023-04-07T00:22:43;4.93;;;0.83;;
72337;SDS011;60294;64.134;-21.862;2023-04-07T00:25:09;1.90;;;0.40;;
72337;SDS011;60294;64.134;-21.862;2023-04-07T00:27:35;3.17;;;0.83;;
72337;SDS011;60294;64.134;-21.862;2023-04-07T00:30:02;4.57;;;1.00;;
72337;SDS011;60294;64.134;-21.862;2023-04-07T00:32:28;6.57;;;1.00;;
72337;SDS011;60294;64.134;-21.862;2023-04-07T00:34:55;1.53;;;0.50;;
72337;SDS011;60294;64.134;-21.862;2023-04-07T00:37:21;4.87;;;0.80;;
72337;SDS011;60294;64.134;-21.862;2023-04-07T00:39:49;0.60;;;0.30;;
72337;SDS011;60294;64.134;-21.862;2023-04-07T00:42:15;1.67;;;0.77;;
72337;SDS011;60294;64.134;-21.862;2023-04-07T00:44:42;4.07;;;0.63;;
72337;SDS011;60294;64.134;-21.862;2023-04-07T00:47:08;3.27;;;0.70;;
72337;SDS011;60294;64.134;-21.862;2023-04-07T00:49:35;2.33;;;0.70;;
72337;SDS011;60294;64.134;-21.862;2023-04-07T00:52:02;4.70;;;0.90;;
72337;SDS011;60294;64.134;-21.862;2023-04-07T00:54:29;1.63;;;0.50;;
72337;SDS011;60294;64.134;-21.862;2023-04-07T00:56:55;8.30;;;1.03;;
72337;SDS011;60294;64.134;-21.862;2023-04-07T00:59:22;1.23;;;0.77;;
72337;SDS011;60294;64.134;-21.862;2023-04-07T01:02:00;1.90;;;0.87;;
72337;SDS011;60294;64.134;-21.862;2023-04-07T01:06:54;5.63;;;1.43;;
72337;SDS011;60294;64.134;-21.862;2023-04-07T01:09:22;4.63;;;0.90;;
72337;SDS011;60294;64.134;-21.862;2023-04-07T01:11:53;1.57;;;0.47;;
72337;SDS011;60294;64.134;-21.862;2023-04-07T01:14:22;4.80;;;1.70;;
72337;SDS011;60294;64.134;-21.862;2023-04-07T01:16:50;2.00;;;1.10;;
72337;SDS011;60294;64.134;-21.862;2023-04-07T01:21:48;12.30;;;1.05;;
72337;SDS011;60294;64.134;-21.862;2023-04-07T01:27:04;6.23;;;0.90;;
72337;SDS011;60294;64.134;-21.862;2023-04-07T01:29:36;1.63;;;0.60;;
72337;SDS011;60294;64.134;-21.862;2023-04-07T01:32:04;2.87;;;0.67;;
72337;SDS011;60294;64.134;-21.862;2023-04-07T01:34:32;2.53;;;0.70;;
72337;SDS011;60294;64.134;-21.862;2023-04-07T01:37:00;6.37;;;1.00;;
72337;SDS011;60294;64.134;-21.862;2023-04-07T01:39:27;2.80;;;0.60;;
72337;SDS011;60294;64.134;-21.862;2023-04-07T01:41:54;7.13;;;0.73;;
72337;SDS011;60294;64.134;-21.862;2023-04-07T01:44:20;1.00;;;0.50;;
72337;SDS011;60294;64.134;-21.862;2023-04-07T01:46:47;8.27;;;1.00;;
72337;SDS011;60294;64.134;-21.862;2023-04-07T01:49:15;1.67;;;0.77;;
72337;SDS011;60294;64.134;-21.862;2023-04-07T01:51:41;6.60;;;0.70;;
72337;SDS011;60294;64.134;-21.862;2023-04-07T01:54:07;3.47;;;0.77;;
72337;SDS011;60294;64.134;-21.862;2023-04-07T01:56:34;3.27;;;0.57;;
72337;SDS011;60294;64.134;-21.862;2023-04-07T01:59:00;3.20;;;0.70;;
72337;SDS011;60294;64.134;-21.862;2023-04-07T02:01:26;2.83;;;1.03;;
72337;SDS011;60294;64.134;-21.862;2023-04-07T02:06:38;2.03;;;0.57;;
72337;SDS011;60294;64.134;-21.862;2023-04-07T02:09:07;2.67;;;1.23;;
72337;SDS011;60294;64.134;-21.862;2023-04-07T02:11:35;0.70;;;0.30;;
72337;SDS011;60294;64.134;-21.862;2023-04-07T02:14:03;2.83;;;0.50;;
72337;SDS011;60294;64.134;-21.862;2023-04-07T02:16:31;2.53;;;0.67;;
72337;SDS011;60294;64.134;-21.862;2023-04-07T02:18:58;2.47;;;1.03;;
72337;SDS011;60294;64.134;-21.862;2023-04-07T02:21:24;2.43;;;0.90;;
72337;SDS011;60294;64.134;-21.862;2023-04-07T02:23:51;2.13;;;0.47;;
72337;SDS011;60294;64.134;-21.862;2023-04-07T02:26:17;1.83;;;0.60;;
72337;SDS011;60294;64.134;-21.862;2023-04-07T02:28:44;0.40;;;0.30;;
72337;SDS011;60294;64.134;-21.862;2023-04-07T02:31:10;2.73;;;0.50;;
72337;SDS011;60294;64.134;-21.862;2023-04-07T02:33:37;2.87;;;0.47;;
72337;SDS011;60294;64.134;-21.862;2023-04-07T02:36:03;10.87;;;1.20;;
72337;SDS011;60294;64.134;-21.862;2023-04-07T02:38:30;4.70;;;0.80;;
72337;SDS011;60294;64.134;-21.862;2023-04-07T02:40:57;4.40;;;0.60;;
72337;SDS011;60294;64.134;-21.862;2023-04-07T02:43:23;5.03;;;1.47;;
72337;SDS011;60294;64.134;-21.862;2023-04-07T02:45:49;2.07;;;0.40;;
72337;SDS011;60294;64.134;-21.862;2023-04-07T02:48:16;2.20;;;0.40;;
72337;SDS011;60294;64.134;-21.862;2023-04-07T02:50:42;1.97;;;0.53;;
72337;SDS011;60294;64.134;-21.862;2023-04-07T02:53:08;3.13;;;1.00;;
72337;SDS011;60294;64.134;-21.862;2023-04-07T02:55:35;10.37;;;2.03;;
72337;SDS011;60294;64.134;-21.862;2023-04-07T02:58:01;0.40;;;0.40;;
72337;SDS011;60294;64.134;-21.862;2023-04-07T03:00:27;2.00;;;0.40;;
72337;SDS011;60294;64.134;-21.862;2023-04-07T03:02:53;0.87;;;0.47;;
72337;SDS011;60294;64.134;-21.862;2023-04-07T03:05:19;3.03;;;0.60;;
72337;SDS011;60294;64.134;-21.862;2023-04-07T03:07:45;2.67;;;0.80;;
72337;SDS011;60294;64.134;-21.862;2023-04-07T03:10:12;2.00;;;0.60;;
72337;SDS011;60294;64.134;-21.862;2023-04-07T03:12:38;2.13;;;0.40;;
72337;SDS011;60294;64.134;-21.862;2023-04-07T03:15:04;2.93;;;0.60;;
72337;SDS011;60294;64.134;-21.862;2023-04-07T03:17:32;2.90;;;0.70;;
72337;SDS011;60294;64.134;-21.862;2023-04-07T03:19:58;4.10;;;0.80;;
72337;SDS011;60294;64.134;-21.862;2023-04-07T03:22:24;1.93;;;0.63;;
72337;SDS011;60294;64.134;-21.862;2023-04-07T03:24:51;1.27;;;0.43;;
72337;SDS011;60294;64.134;-21.862;2023-04-07T03:27:17;6.53;;;0.60;;
72337;SDS011;60294;64.134;-21.862;2023-04-07T03:29:44;1.27;;;0.73;;
72337;SDS011;60294;64.134;-21.862;2023-04-07T03:32:10;1.60;;;0.40;;
72337;SDS011;60294;64.134;-21.862;2023-04-07T03:34:37;4.23;;;0.50;;
72337;SDS011;60294;64.134;-21.862;2023-04-07T03:37:03;2.57;;;0.60;;
72337;SDS011;60294;64.134;-21.862;2023-04-07T03:39:29;0.60;;;0.33;;
72337;SDS011;60294;64.134;-21.862;2023-04-07T03:41:56;4.37;;;0.60;;
72337;SDS011;60294;64.134;-21.862;2023-04-07T03:44:22;1.07;;;0.50;;
72337;SDS011;60294;64.134;-21.862;2023-04-07T03:46:48;3.23;;;0.73;;
72337;SDS011;60294;64.134;-21.862;2023-04-07T03:49:15;4.80;;;0.90;;
72337;SDS011;60294;64.134;-21.862;2023-04-07T03:51:41;3.40;;;1.07;;
72337;SDS011;60294;64.134;-21.862;2023-04-07T03:54:07;1.00;;;0.40;;
72337;SDS011;60294;64.134;-21.862;2023-04-07T03:56:33;3.40;;;1.03;;
72337;SDS011;60294;64.134;-21.862;2023-04-07T03:58:59;0.67;;;0.50;;
72337;SDS011;60294;64.134;-21.862;2023-04-07T04:01:25;1.67;;;0.50;;
72337;SDS011;60294;64.134;-21.862;2023-04-07T04:03:52;1.07;;;0.47;;
72337;SDS011;60294;64.134;-21.862;2023-04-07T04:06:18;1.17;;;0.57;;
72337;SDS011;60294;64.134;-21.862;2023-04-07T04:08:44;0.20;;;0.20;;
72337;SDS011;60294;64.134;-21.862;2023-04-07T04:11:10;0.83;;;0.50;;
72337;SDS011;60294;64.134;-21.862;2023-04-07T04:13:36;5.43;;;0.80;;
72337;SDS011;60294;64.134;-21.862;2023-04-07T04:16:02;3.53;;;0.37;;
72337;SDS011;60294;64.134;-21.862;2023-04-07T04:18:29;0.20;;;0.20;;
72337;SDS011;60294;64.134;-21.862;2023-04-07T04:20:55;0.20;;;0.20;;
72337;SDS011;60294;64.134;-21.862;2023-04-07T04:23:21;0.53;;;0.40;;
72337;SDS011;60294;64.134;-21.862;2023-04-07T04:25:47;7.60;;;0.50;;
72337;SDS011;60294;64.134;-21.862;2023-04-07T04:28:13;3.13;;;0.50;;
72337;SDS011;60294;64.134;-21.862;2023-04-07T04:30:40;1.80;;;1.07;;
72337;SDS011;60294;64.134;-21.862;2023-04-07T04:33:06;0.80;;;0.33;;
72337;SDS011;60294;64.134;-21.862;2023-04-07T04:35:32;2.00;;;0.30;;
72337;SDS011;60294;64.134;-21.862;2023-04-07T04:37:59;0.30;;;0.30;;
72337;SDS011;60294;64.134;-21.862;2023-04-07T04:40:25;0.50;;;0.40;;
72337;SDS011;60294;64.134;-21.862;2023-04-07T04:42:52;1.27;;;0.50;;
72337;SDS011;60294;64.134;-21.862;2023-04-07T04:45:18;1.30;;;0.70;;
72337;SDS011;60294;64.134;-21.862;2023-04-07T04:47:44;0.80;;;0.50;;
72337;SDS011;60294;64.134;-21.862;2023-04-07T04:50:10;2.33;;;0.83;;
72337;SDS011;60294;64.134;-21.862;2023-04-07T04:52:37;4.57;;;0.47;;
72337;SDS011;60294;64.134;-21.862;2023-04-07T04:55:03;0.77;;;0.33;;
72337;SDS011;60294;64.134;-21.862;2023-04-07T04:57:30;5.47;;;0.70;;
72337;SDS011;60294;64.134;-21.862;2023-04-07T04:59:56;2.83;;;0.60;;
72337;SDS011;60294;64.134;-21.862;2023-04-07T05:02:22;0.23;;;0.23;;
72337;SDS011;60294;64.134;-21.862;2023-04-07T05:04:48;3.57;;;0.57;;
72337;SDS011;60294;64.134;-21.862;2023-04-07T05:07:14;0.57;;;0.40;;
72337;SDS011;60294;64.134;-21.862;2023-04-07T05:09:40;1.13;;;0.60;;
72337;SDS011;60294;64.134;-21.862;2023-04-07T05:12:07;2.23;;;0.73;;
72337;SDS011;60294;64.134;-21.862;2023-04-07T05:14:33;4.07;;;0.53;;
72337;SDS011;60294;64.134;-21.862;2023-04-07T05:16:59;3.17;;;0.50;;
72337;SDS011;60294;64.134;-21.862;2023-04-07T05:19:25;0.40;;;0.33;;
72337;SDS011;60294;64.134;-21.862;2023-04-07T05:21:53;1.70;;;0.60;;
72337;SDS011;60294;64.134;-21.862;2023-04-07T05:24:20;2.27;;;0.40;;
72337;SDS011;60294;64.134;-21.862;2023-04-07T05:26:46;4.80;;;0.40;;
72337;SDS011;60294;64.134;-21.862;2023-04-07T05:29:12;3.93;;;0.60;;
72337;SDS011;60294;64.134;-21.862;2023-04-07T05:31:38;2.90;;;0.63;;
72337;SDS011;60294;64.134;-21.862;2023-04-07T05:34:05;0.30;;;0.30;;
72337;SDS011;60294;64.134;-21.862;2023-04-07T05:36:32;1.50;;;0.60;;
72337;SDS011;60294;64.134;-21.862;2023-04-07T05:38:58;1.70;;;0.60;;
72337;SDS011;60294;64.134;-21.862;2023-04-07T05:41:24;0.67;;;0.40;;
72337;SDS011;60294;64.134;-21.862;2023-04-07T05:43:51;2.03;;;0.70;;
72337;SDS011;60294;64.134;-21.862;2023-04-07T05:46:17;2.10;;;1.03;;
72337;SDS011;60294;64.134;-21.862;2023-04-07T05:48:43;1.97;;;1.23;;
72337;SDS011;60294;64.134;-21.862;2023-04-07T05:51:09;1.23;;;0.60;;
72337;SDS011;60294;64.134;-21.862;2023-04-07T05:53:35;0.30;;;0.30;;
72337;SDS011;60294;64.134;-21.862;2023-04-07T05:56:01;4.47;;;1.00;;
72337;SDS011;60294;64.134;-21.862;2023-04-07T05:58:27;3.13;;;0.70;;
72337;SDS011;60294;64.134;-21.862;2023-04-07T06:00:54;0.23;;;0.20;;
72337;SDS011;60294;64.134;-21.862;2023-04-07T06:03:20;0.97;;;0.40;;
72337;SDS011;60294;64.134;-21.862;2023-04-07T06:05:46;2.40;;;0.40;;
72337;SDS011;60294;64.134;-21.862;2023-04-07T06:08:12;0.87;;;0.40;;
72337;SDS011;60294;64.134;-21.862;2023-04-07T06:10:38;0.40;;;0.40;;
72337;SDS011;60294;64.134;-21.862;2023-04-07T06:13:05;0.60;;;0.30;;
72337;SDS011;60294;64.134;-21.862;2023-04-07T06:15:32;0.73;;;0.30;;
72337;SDS011;60294;64.134;-21.862;2023-04-07T06:17:58;2.90;;;0.77;;
72337;SDS011;60294;64.134;-21.862;2023-04-07T06:20:24;0.53;;;0.40;;
72337;SDS011;60294;64.134;-21.862;2023-04-07T06:22:52;4.17;;;0.60;;
72337;SDS011;60294;64.134;-21.862;2023-04-07T06:25:18;2.13;;;0.50;;
72337;SDS011;60294;64.134;-21.862;2023-04-07T06:27:45;2.47;;;0.73;;
72337;SDS011;60294;64.134;-21.862;2023-04-07T06:30:11;1.57;;;0.60;;
72337;SDS011;60294;64.134;-21.862;2023-04-07T06:32:38;2.77;;;0.37;;
72337;SDS011;60294;64.134;-21.862;2023-04-07T06:35:04;0.40;;;0.30;;
72337;SDS011;60294;64.134;-21.862;2023-04-07T06:37:30;2.37;;;0.60;;
72337;SDS011;60294;64.134;-21.862;2023-04-07T06:39:56;0.50;;;0.33;;
72337;SDS011;60294;64.134;-21.862;2023-04-07T06:42:23;2.00;;;0.47;;
72337;SDS011;60294;64.134;-21.862;2023-04-07T06:44:49;0.83;;;0.33;;
72337;SDS011;60294;64.134;-21.862;2023-04-07T06:47:15;3.70;;;0.40;;
72337;SDS011;60294;64.134;-21.862;2023-04-07T06:49:41;3.07;;;0.40;;
72337;SDS011;60294;64.134;-21.862;2023-04-07T06:52:07;1.03;;;0.33;;
72337;SDS011;60294;64.134;-21.862;2023-04-07T06:54:33;3.13;;;0.40;;
72337;SDS011;60294;64.134;-21.862;2023-04-07T06:56:59;0.30;;;0.30;;
72337;SDS011;60294;64.134;-21.862;2023-04-07T06:59:26;0.37;;;0.30;;
72337;SDS011;60294;64.134;-21.862;2023-04-07T07:01:52;0.20;;;0.20;;
72337;SDS011;60294;64.134;-21.862;2023-04-07T07:04:18;0.40;;;0.40;;
72337;SDS011;60294;64.134;-21.862;2023-04-07T07:06:44;3.20;;;0.47;;
72337;SDS011;60294;64.134;-21.862;2023-04-07T07:09:10;0.20;;;0.20;;
72337;SDS011;60294;64.134;-21.862;2023-04-07T07:11:36;0.47;;;0.30;;
72337;SDS011;60294;64.134;-21.862;2023-04-07T07:14:04;0.93;;;0.47;;
72337;SDS011;60294;64.134;-21.862;2023-04-07T07:16:30;0.10;;;0.10;;
72337;SDS011;60294;64.134;-21.862;2023-04-07T07:18:56;0.30;;;0.30;;
72337;SDS011;60294;64.134;-21.862;2023-04-07T07:21:22;0.60;;;0.40;;
72337;SDS011;60294;64.134;-21.862;2023-04-07T07:23:48;0.20;;;0.20;;
72337;SDS011;60294;64.134;-21.862;2023-04-07T07:26:14;3.70;;;0.60;;
72337;SDS011;60294;64.134;-21.862;2023-04-07T07:28:41;0.20;;;0.20;;
72337;SDS011;60294;64.134;-21.862;2023-04-07T07:31:08;0.87;;;0.30;;
72337;SDS011;60294;64.134;-21.862;2023-04-07T07:33:34;0.20;;;0.20;;
72337;SDS011;60294;64.134;-21.862;2023-04-07T07:36:00;0.20;;;0.20;;
72337;SDS011;60294;64.134;-21.862;2023-04-07T07:38:26;2.43;;;0.33;;
72337;SDS011;60294;64.134;-21.862;2023-04-07T07:40:52;0.20;;;0.20;;
72337;SDS011;60294;64.134;-21.862;2023-04-07T07:43:19;0.20;;;0.20;;
72337;SDS011;60294;64.134;-21.862;2023-04-07T07:45:45;0.20;;;0.20;;
72337;SDS011;60294;64.134;-21.862;2023-04-07T07:48:11;0.10;;;0.10;;
72337;SDS011;60294;64.134;-21.862;2023-04-07T07:50:37;0.20;;;0.20;;
72337;SDS011;60294;64.134;-21.862;2023-04-07T07:53:03;0.20;;;0.20;;
72337;SDS011;60294;64.134;-21.862;2023-04-07T07:55:28;0.20;;;0.20;;
72337;SDS011;60294;64.134;-21.862;2023-04-07T07:57:54;0.30;;;0.30;;
72337;SDS011;60294;64.134;-21.862;2023-04-07T08:00:20;0.20;;;0.20;;
72337;SDS011;60294;64.134;-21.862;2023-04-07T08:02:48;1.70;;;0.30;;
72337;SDS011;60294;64.134;-21.862;2023-04-07T08:05:14;0.20;;;0.20;;
72337;SDS011;60294;64.134;-21.862;2023-04-07T08:07:40;0.20;;;0.20;;
72337;SDS011;60294;64.134;-21.862;2023-04-07T08:10:07;0.20;;;0.20;;
72337;SDS011;60294;64.134;-21.862;2023-04-07T08:12:33;0.10;;;0.10;;
72337;SDS011;60294;64.134;-21.862;2023-04-07T08:14:59;0.10;;;0.10;;
72337;SDS011;60294;64.134;-21.862;2023-04-07T08:17:25;0.37;;;0.20;;
72337;SDS011;60294;64.134;-21.862;2023-04-07T08:19:51;0.20;;;0.20;;
72337;SDS011;60294;64.134;-21.862;2023-04-07T08:22:17;0.20;;;0.20;;
72337;SDS011;60294;64.134;-21.862;2023-04-07T08:24:45;0.20;;;0.20;;
72337;SDS011;60294;64.134;-21.862;2023-04-07T08:27:11;0.10;;;0.10;;
72337;SDS011;60294;64.134;-21.862;2023-04-07T08:29:37;0.20;;;0.20;;
72337;SDS011;60294;64.134;-21.862;2023-04-07T08:32:03;0.10;;;0.10;;
72337;SDS011;60294;64.134;-21.862;2023-04-07T08:34:29;0.20;;;0.20;;
72337;SDS011;60294;64.134;-21.862;2023-04-07T08:36:55;0.10;;;0.10;;
72337;SDS011;60294;64.134;-21.862;2023-04-07T08:39:21;0.20;;;0.20;;
72337;SDS011;60294;64.134;-21.862;2023-04-07T08:41:49;0.20;;;0.20;;
72337;SDS011;60294;64.134;-21.862;2023-04-07T08:44:16;0.10;;;0.10;;
72337;SDS011;60294;64.134;-21.862;2023-04-07T08:46:45;0.10;;;0.10;;
72337;SDS011;60294;64.134;-21.862;2023-04-07T08:49:13;0.20;;;0.20;;
72337;SDS011;60294;64.134;-21.862;2023-04-07T08:51:45;0.10;;;0.10;;
72337;SDS011;60294;64.134;-21.862;2023-04-07T08:54:13;0.10;;;0.10;;
72337;SDS011;60294;64.134;-21.862;2023-04-07T08:56:40;0.10;;;0.10;;
72337;SDS011;60294;64.134;-21.862;2023-04-07T08:59:08;0.10;;;0.10;;
72337;SDS011;60294;64.134;-21.862;2023-04-07T09:01:38;0.20;;;0.20;;
72337;SDS011;60294;64.134;-21.862;2023-04-07T09:04:05;0.20;;;0.20;;
72337;SDS011;60294;64.134;-21.862;2023-04-07T09:06:32;0.10;;;0.10;;
72337;SDS011;60294;64.134;-21.862;2023-04-07T09:08:59;0.10;;;0.10;;
72337;SDS011;60294;64.134;-21.862;2023-04-07T09:11:26;0.47;;;0.23;;
72337;SDS011;60294;64.134;-21.862;2023-04-07T09:13:53;0.10;;;0.10;;
72337;SDS011;60294;64.134;-21.862;2023-04-07T09:16:20;0.27;;;0.20;;
72337;SDS011;60294;64.134;-21.862;2023-04-07T09:18:48;0.20;;;0.20;;
72337;SDS011;60294;64.134;-21.862;2023-04-07T09:21:14;0.10;;;0.10;;
72337;SDS011;60294;64.134;-21.862;2023-04-07T09:23:40;0.43;;;0.20;;
72337;SDS011;60294;64.134;-21.862;2023-04-07T09:26:23;0.20;;;0.20;;
72337;SDS011;60294;64.134;-21.862;2023-04-07T09:28:57;0.20;;;0.20;;
72337;SDS011;60294;64.134;-21.862;2023-04-07T09:31:42;0.10;;;0.10;;
72337;SDS011;60294;64.134;-21.862;2023-04-07T09:34:34;0.30;;;0.10;;
72337;SDS011;60294;64.134;-21.862;2023-04-07T09:37:00;0.20;;;0.10;;
72337;SDS011;60294;64.134;-21.862;2023-04-07T09:39:27;0.27;;;0.27;;
72337;SDS011;60294;64.134;-21.862;2023-04-07T09:41:53;0.30;;;0.20;;
72337;SDS011;60294;64.134;-21.862;2023-04-07T09:44:20;0.10;;;0.10;;
72337;SDS011;60294;64.134;-21.862;2023-04-07T09:46:47;0.20;;;0.20;;
72337;SDS011;60294;64.134;-21.862;2023-04-07T09:49:23;0.55;;;0.20;;
72337;SDS011;60294;64.134;-21.862;2023-04-07T09:52:00;0.20;;;0.20;;
72337;SDS011;60294;64.134;-21.862;2023-04-07T09:57:05;0.28;;;0.10;;
72337;SDS011;60294;64.134;-21.862;2023-04-07T09:59:33;1.45;;;0.30;;
72337;SDS011;60294;64.134;-21.862;2023-04-07T10:02:00;0.20;;;0.20;;
72337;SDS011;60294;64.134;-21.862;2023-04-07T10:04:26;10.23;;;0.60;;
72337;SDS011;60294;64.134;-21.862;2023-04-07T10:06:56;1.92;;;0.30;;
72337;SDS011;60294;64.134;-21.862;2023-04-07T10:09:23;0.32;;;0.30;;
72337;SDS011;60294;64.134;-21.862;2023-04-07T10:11:50;1.13;;;0.20;;
72337;SDS011;60294;64.134;-21.862;2023-04-07T10:14:17;0.38;;;0.30;;
72337;SDS011;60294;64.134;-21.862;2023-04-07T10:16:45;0.55;;;0.20;;
72337;SDS011;60294;64.134;-21.862;2023-04-07T10:19:12;0.20;;;0.20;;
72337;SDS011;60294;64.134;-21.862;2023-04-07T10:21:39;1.30;;;0.25;;
72337;SDS011;60294;64.134;-21.862;2023-04-07T10:26:45;0.43;;;0.38;;
72337;SDS011;60294;64.134;-21.862;2023-04-07T10:31:43;2.92;;;0.70;;
72337;SDS011;60294;64.134;-21.862;2023-04-07T10:34:10;2.38;;;1.02;;
72337;SDS011;60294;64.134;-21.862;2023-04-07T10:37:06;6.22;;;1.65;;
72337;SDS011;60294;64.134;-21.862;2023-04-07T10:39:38;11.15;;;1.90;;
72337;SDS011;60294;64.134;-21.862;2023-04-07T10:42:05;5.47;;;1.77;;
72337;SDS011;60294;64.134;-21.862;2023-04-07T10:47:03;12.27;;;3.20;;
72337;SDS011;60294;64.134;-21.862;2023-04-07T10:49:31;16.20;;;3.95;;
72337;SDS011;60294;64.134;-21.862;2023-04-07T10:54:36;17.38;;;2.90;;
72337;SDS011;60294;64.134;-21.862;2023-04-07T10:57:13;14.60;;;2.75;;
72337;SDS011;60294;64.134;-21.862;2023-04-07T11:02:34;12.88;;;3.63;;
72337;SDS011;60294;64.134;-21.862;2023-04-07T11:05:03;21.98;;;4.30;;
72337;SDS011;60294;64.134;-21.862;2023-04-07T11:07:42;21.95;;;4.03;;
72337;SDS011;60294;64.134;-21.862;2023-04-07T11:10:16;18.80;;;3.58;;
72337;SDS011;60294;64.134;-21.862;2023-04-07T11:12:58;27.17;;;3.72;;
72337;SDS011;60294;64.134;-21.862;2023-04-07T11:15:26;22.50;;;3.47;;
72337;SDS011;60294;64.134;-21.862;2023-04-07T11:18:08;20.08;;;3.13;;
72337;SDS011;60294;64.134;-21.862;2023-04-07T11:23:11;6.60;;;1.57;;
72337;SDS011;60294;64.134;-21.862;2023-04-07T11:25:37;8.77;;;1.88;;
72337;SDS011;60294;64.134;-21.862;2023-04-07T11:28:03;13.63;;;2.83;;
72337;SDS011;60294;64.134;-21.862;2023-04-07T11:30:31;8.43;;;1.85;;
72337;SDS011;60294;64.134;-21.862;2023-04-07T11:32:57;13.07;;;2.72;;
72337;SDS011;60294;64.134;-21.862;2023-04-07T11:35:24;10.85;;;2.25;;
72337;SDS011;60294;64.134;-21.862;2023-04-07T11:37:55;13.90;;;1.92;;
72337;SDS011;60294;64.134;-21.862;2023-04-07T11:40:35;9.45;;;2.00;;
72337;SDS011;60294;64.134;-21.862;2023-04-07T11:43:02;7.05;;;1.80;;
72337;SDS011;60294;64.134;-21.862;2023-04-07T11:45:40;8.85;;;1.85;;
72337;SDS011;60294;64.134;-21.862;2023-04-07T11:50:52;3.72;;;0.57;;
72337;SDS011;60294;64.134;-21.862;2023-04-07T11:53:28;6.15;;;2.05;;
72337;SDS011;60294;64.134;-21.862;2023-04-07T11:56:01;5.78;;;0.90;;
72337;SDS011;60294;64.134;-21.862;2023-04-07T12:00:53;11.63;;;1.48;;
72337;SDS011;60294;64.134;-21.862;2023-04-07T12:03:21;11.85;;;1.70;;
72337;SDS011;60294;64.134;-21.862;2023-04-07T12:05:47;4.50;;;1.35;;
72337;SDS011;60294;64.134;-21.862;2023-04-07T12:08:13;6.07;;;1.10;;
72337;SDS011;60294;64.134;-21.862;2023-04-07T12:10:40;2.28;;;0.60;;
72337;SDS011;60294;64.134;-21.862;2023-04-07T12:13:07;3.05;;;0.82;;
72337;SDS011;60294;64.134;-21.862;2023-04-07T12:15:34;5.00;;;0.98;;
72337;SDS011;60294;64.134;-21.862;2023-04-07T12:18:01;7.55;;;1.73;;
72337;SDS011;60294;64.134;-21.862;2023-04-07T12:20:27;6.13;;;3.28;;
72337;SDS011;60294;64.134;-21.862;2023-04-07T12:22:53;6.93;;;1.70;;
72337;SDS011;60294;64.134;-21.862;2023-04-07T12:25:20;6.25;;;1.80;;
72337;SDS011;60294;64.134;-21.862;2023-04-07T12:27:45;19.70;;;1.95;;
72337;SDS011;60294;64.134;-21.862;2023-04-07T12:30:12;12.70;;;2.10;;
72337;SDS011;60294;64.134;-21.862;2023-04-07T12:32:38;8.32;;;1.95;;
72337;SDS011;60294;64.134;-21.862;2023-04-07T12:35:05;16.85;;;3.42;;
72337;SDS011;60294;64.134;-21.862;2023-04-07T12:37:33;10.65;;;2.53;;
72337;SDS011;60294;64.134;-21.862;2023-04-07T12:39:59;15.68;;;2.97;;
72337;SDS011;60294;64.134;-21.862;2023-04-07T12:42:25;22.13;;;4.65;;
72337;SDS011;60294;64.134;-21.862;2023-04-07T12:44:54;15.73;;;3.10;;
72337;SDS011;60294;64.134;-21.862;2023-04-07T12:47:20;20.65;;;2.95;;
72337;SDS011;60294;64.134;-21.862;2023-04-07T12:49:47;10.27;;;1.92;;
72337;SDS011;60294;64.134;-21.862;2023-04-07T12:52:13;8.73;;;2.17;;
72337;SDS011;60294;64.134;-21.862;2023-04-07T12:54:39;16.92;;;2.30;;
72337;SDS011;60294;64.134;-21.862;2023-04-07T12:57:08;11.40;;;2.60;;
72337;SDS011;60294;64.134;-21.862;2023-04-07T12:59:35;20.52;;;4.22;;
72337;SDS011;60294;64.134;-21.862;2023-04-07T13:02:01;21.30;;;5.28;;
72337;SDS011;60294;64.134;-21.862;2023-04-07T13:04:27;17.42;;;2.88;;
72337;SDS011;60294;64.134;-21.862;2023-04-07T13:06:54;24.92;;;5.25;;
72337;SDS011;60294;64.134;-21.862;2023-04-07T13:09:20;19.60;;;3.88;;
72337;SDS011;60294;64.134;-21.862;2023-04-07T13:11:47;14.23;;;2.75;;
72337;SDS011;60294;64.134;-21.862;2023-04-07T13:14:13;18.42;;;4.22;;
72337;SDS011;60294;64.134;-21.862;2023-04-07T13:16:41;17.42;;;3.50;;
72337;SDS011;60294;64.134;-21.862;2023-04-07T13:19:13;10.48;;;2.50;;
72337;SDS011;60294;64.134;-21.862;2023-04-07T13:21:39;18.10;;;2.50;;
72337;SDS011;60294;64.134;-21.862;2023-04-07T13:24:05;12.38;;;1.67;;
72337;SDS011;60294;64.134;-21.862;2023-04-07T13:26:31;9.18;;;1.85;;
72337;SDS011;60294;64.134;-21.862;2023-04-07T13:28:57;15.65;;;1.80;;
72337;SDS011;60294;64.134;-21.862;2023-04-07T13:31:24;3.58;;;1.92;;
72337;SDS011;60294;64.134;-21.862;2023-04-07T13:33:58;6.15;;;2.38;;
72337;SDS011;60294;64.134;-21.862;2023-04-07T13:36:30;8.82;;;0.90;;
72337;SDS011;60294;64.134;-21.862;2023-04-07T13:38:59;14.48;;;3.40;;
72337;SDS011;60294;64.134;-21.862;2023-04-07T13:41:26;11.43;;;2.47;;
72337;SDS011;60294;64.134;-21.862;2023-04-07T13:44:02;8.02;;;2.05;;
72337;SDS011;60294;64.134;-21.862;2023-04-07T13:46:30;11.25;;;1.95;;
72337;SDS011;60294;64.134;-21.862;2023-04-07T13:49:04;9.55;;;2.67;;
72337;SDS011;60294;64.134;-21.862;2023-04-07T13:51:33;7.57;;;2.15;;
72337;SDS011;60294;64.134;-21.862;2023-04-07T13:54:01;15.40;;;2.90;;
72337;SDS011;60294;64.134;-21.862;2023-04-07T13:56:27;22.90;;;2.97;;
72337;SDS011;60294;64.134;-21.862;2023-04-07T13:58:53;18.83;;;4.25;;
72337;SDS011;60294;64.134;-21.862;2023-04-07T14:01:19;13.52;;;3.63;;
72337;SDS011;60294;64.134;-21.862;2023-04-07T14:03:45;22.17;;;3.15;;
72337;SDS011;60294;64.134;-21.862;2023-04-07T14:06:14;17.85;;;3.50;;
72337;SDS011;60294;64.134;-21.862;2023-04-07T14:08:40;23.30;;;4.28;;
72337;SDS011;60294;64.134;-21.862;2023-04-07T14:11:05;23.77;;;4.03;;
72337;SDS011;60294;64.134;-21.862;2023-04-07T14:13:31;17.98;;;4.43;;
72337;SDS011;60294;64.134;-21.862;2023-04-07T14:15:58;20.15;;;4.13;;
72337;SDS011;60294;64.134;-21.862;2023-04-07T14:18:24;24.13;;;4.18;;
72337;SDS011;60294;64.134;-21.862;2023-04-07T14:20:52;25.95;;;5.47;;
72337;SDS011;60294;64.134;-21.862;2023-04-07T14:23:17;16.63;;;3.47;;
72337;SDS011;60294;64.134;-21.862;2023-04-07T14:25:43;15.57;;;3.00;;
72337;SDS011;60294;64.134;-21.862;2023-04-07T14:28:10;16.67;;;3.80;;
72337;SDS011;60294;64.134;-21.862;2023-04-07T14:30:52;29.97;;;8.70;;
72337;SDS011;60294;64.134;-21.862;2023-04-07T14:33:22;21.40;;;3.38;;
72337;SDS011;60294;64.134;-21.862;2023-04-07T14:35:48;20.05;;;5.07;;
72337;SDS011;60294;64.134;-21.862;2023-04-07T14:38:14;15.02;;;4.25;;
72337;SDS011;60294;64.134;-21.862;2023-04-07T14:40:40;22.73;;;4.20;;
72337;SDS011;60294;64.134;-21.862;2023-04-07T14:43:06;19.48;;;5.38;;
72337;SDS011;60294;64.134;-21.862;2023-04-07T14:45:34;19.40;;;3.90;;
72337;SDS011;60294;64.134;-21.862;2023-04-07T14:48:00;30.02;;;5.20;;
72337;SDS011;60294;64.134;-21.862;2023-04-07T14:50:26;19.85;;;4.05;;
72337;SDS011;60294;64.134;-21.862;2023-04-07T14:52:52;21.52;;;4.20;;